createdAt,value
2016-03-04T00:00:54.541Z,22.7
2016-03-04T00:02:51.344Z,22.7
2016-03-04T00:05:46.398Z,22.7
2016-03-04T00:07:43.013Z,22.7
2016-03-04T00:08:44.032Z,22.7
2016-03-04T00:09:42.550Z,22.7
2016-03-04T00:10:41.210Z,22.7
2016-03-04T00:11:39.602Z,22.7
2016-03-04T00:12:38.262Z,22.7
2016-03-04T00:13:36.670Z,22.7
2016-03-04T00:14:35.313Z,22.7
2016-03-04T00:15:33.723Z,22.6
2016-03-04T00:16:32.256Z,22.6
2016-03-04T00:17:30.946Z,22.6
2016-03-04T00:18:31.965Z,22.6
2016-03-04T00:19:30.483Z,22.6
2016-03-04T00:20:28.892Z,22.6
2016-03-04T00:21:27.536Z,22.6
2016-03-04T00:22:25.959Z,22.6
2016-03-04T00:23:24.478Z,22.6
2016-03-04T00:24:23.137Z,22.5
2016-03-04T00:25:21.531Z,22.6
2016-03-04T00:26:20.065Z,22.5
2016-03-04T00:27:18.644Z,22.6
2016-03-04T00:28:19.773Z,22.5
2016-03-04T00:29:18.291Z,22.5
2016-03-04T00:30:16.697Z,22.5
2016-03-04T00:31:15.221Z,22.5
2016-03-04T00:32:13.759Z,22.5
2016-03-04T00:33:12.527Z,22.5
2016-03-04T00:34:11.312Z,22.5
2016-03-04T00:35:10.080Z,22.5
2016-03-04T00:36:08.865Z,22.5
2016-03-04T00:37:07.835Z,22.5
2016-03-04T00:38:08.712Z,22.5
2016-03-04T00:39:07.497Z,22.5
2016-03-04T00:40:06.297Z,22.5
2016-03-04T00:41:05.049Z,22.5
2016-03-04T00:42:03.834Z,22.5
2016-03-04T00:43:02.633Z,22.5
2016-03-04T00:44:01.417Z,22.5
2016-03-04T00:45:00.184Z,22.5
2016-03-04T00:45:59.078Z,22.5
2016-03-04T00:46:57.800Z,22.4
2016-03-04T00:47:58.803Z,22.5
2016-03-04T00:48:57.587Z,22.4
2016-03-04T00:49:56.636Z,22.5
2016-03-04T00:50:55.420Z,22.5
2016-03-04T00:51:54.188Z,22.5
2016-03-04T00:52:52.973Z,22.4
2016-03-04T00:53:51.866Z,22.4
2016-03-04T00:54:50.525Z,22.4
2016-03-04T00:55:49.309Z,22.4
2016-03-04T00:56:48.156Z,22.4
2016-03-04T00:57:49.267Z,22.4
2016-03-04T00:58:47.942Z,22.4
2016-03-04T00:59:46.711Z,22.4
2016-03-04T01:00:45.620Z,22.4
2016-03-04T01:02:43.063Z,22.4
2016-03-04T01:03:41.956Z,22.4
2016-03-04T01:04:40.614Z,22.4
2016-03-04T01:05:39.400Z,22.4
2016-03-04T01:06:38.355Z,22.4
2016-03-04T01:07:39.248Z,22.4
2016-03-04T01:08:38.032Z,22.4
2016-03-04T01:09:36.816Z,22.4
2016-03-04T01:10:35.616Z,22.4
2016-03-04T01:11:34.369Z,22.4
2016-03-04T01:12:33.152Z,22.4
2016-03-04T01:13:31.936Z,22.4
2016-03-04T01:15:29.488Z,22.4
2016-03-04T01:16:28.460Z,22.4
2016-03-04T01:17:29.338Z,22.4
2016-03-04T01:18:28.121Z,22.4
2016-03-04T01:19:26.889Z,22.4
2016-03-04T01:20:25.799Z,22.4
2016-03-04T01:21:24.582Z,22.3
2016-03-04T01:22:23.242Z,22.4
2016-03-04T01:23:22.150Z,22.4
2016-03-04T01:24:20.809Z,22.4
2016-03-04T01:25:19.715Z,22.3
2016-03-04T01:26:18.421Z,22.3
2016-03-04T01:27:19.471Z,22.3
2016-03-04T01:28:18.333Z,22.3
2016-03-04T01:29:16.992Z,22.4
2016-03-04T01:30:15.776Z,22.3
2016-03-04T01:31:14.544Z,22.3
2016-03-04T01:32:13.344Z,22.3
2016-03-04T01:33:12.237Z,22.3
2016-03-04T01:34:11.037Z,22.3
2016-03-04T01:35:09.789Z,22.3
2016-03-04T01:36:08.511Z,22.3
2016-03-04T01:37:09.513Z,22.3
2016-03-04T01:38:08.297Z,22.3
2016-03-04T01:39:07.080Z,22.3
2016-03-04T01:40:05.991Z,22.3
2016-03-04T01:41:04.758Z,22.3
2016-03-04T01:42:03.558Z,22.3
2016-03-04T01:43:02.326Z,22.3
2016-03-04T01:44:01.126Z,22.3
2016-03-04T01:44:59.879Z,22.3
2016-03-04T01:45:58.850Z,22.3
2016-03-04T01:47:58.902Z,22.3
2016-03-04T01:48:57.702Z,22.3
2016-03-04T01:49:56.455Z,22.3
2016-03-04T01:50:55.363Z,22.3
2016-03-04T01:51:54.162Z,22.3
2016-03-04T01:52:52.807Z,22.3
2016-03-04T01:53:51.701Z,22.3
2016-03-04T01:54:50.390Z,22.3
2016-03-04T01:55:49.314Z,22.3
2016-03-04T01:56:50.208Z,22.3
2016-03-04T01:57:49.101Z,22.3
2016-03-04T01:58:47.759Z,22.3
2016-03-04T01:59:46.669Z,22.3
2016-03-04T02:00:45.344Z,22.3
2016-03-04T02:02:43.005Z,22.3
2016-03-04T02:03:41.790Z,22.3
2016-03-04T02:06:40.422Z,22.3
2016-03-04T02:07:39.205Z,22.3
2016-03-04T02:08:37.974Z,22.3
2016-03-04T02:09:36.758Z,22.3
2016-03-04T02:10:35.416Z,22.3
2016-03-04T02:11:34.201Z,22.3
2016-03-04T02:31:13.132Z,22.3
2016-03-04T02:32:11.775Z,22.3
2016-03-04T02:33:10.183Z,22.3
2016-03-04T02:35:07.299Z,22.3
2016-03-04T02:36:08.317Z,22.3
2016-03-04T02:37:06.944Z,22.3
2016-03-04T02:38:05.479Z,22.3
2016-03-04T02:39:03.871Z,22.3
2016-03-04T02:40:02.421Z,22.3
2016-03-04T02:41:01.065Z,22.3
2016-03-04T02:41:59.598Z,22.3
2016-03-04T02:42:58.117Z,22.3
2016-03-04T02:43:56.510Z,22.3
2016-03-04T02:44:55.106Z,22.3
2016-03-04T02:45:56.093Z,22.3
2016-03-04T02:46:54.893Z,22.3
2016-03-04T02:47:53.520Z,22.3
2016-03-04T02:48:52.320Z,22.3
2016-03-04T02:49:50.839Z,22.3
2016-03-04T02:50:49.248Z,22.3
2016-03-04T02:51:47.781Z,22.3
2016-03-04T02:52:46.659Z,22.3
2016-03-04T02:53:45.333Z,22.3
2016-03-04T02:54:43.914Z,22.3
2016-03-04T02:55:45.042Z,22.3
2016-03-04T02:56:43.592Z,22.3
2016-03-04T02:57:42.111Z,22.3
2016-03-04T02:58:40.535Z,22.3
2016-03-04T02:59:39.038Z,22.3
2016-03-04T03:00:37.572Z,22.3
2016-03-04T03:01:36.106Z,22.3
2016-03-04T03:02:34.733Z,22.3
2016-03-04T03:03:33.142Z,22.3
2016-03-04T03:04:31.723Z,22.3
2016-03-04T03:05:32.726Z,22.3
2016-03-04T03:06:31.259Z,22.3
2016-03-04T03:07:29.793Z,22.3
2016-03-04T03:08:28.327Z,22.3
2016-03-04T03:09:26.846Z,22.3
2016-03-04T03:10:25.521Z,22.3
2016-03-04T03:11:23.896Z,22.3
2016-03-04T03:12:22.523Z,22.3
2016-03-04T03:13:21.181Z,22.2
2016-03-04T03:14:20.153Z,22.3
2016-03-04T03:15:21.157Z,22.3
2016-03-04T03:16:19.815Z,22.3
2016-03-04T03:17:18.583Z,22.3
2016-03-04T03:18:17.383Z,22.2
2016-03-04T03:19:16.167Z,22.2
2016-03-04T03:20:14.934Z,22.2
2016-03-04T03:21:13.844Z,22.3
2016-03-04T03:22:12.612Z,22.2
2016-03-04T03:23:11.272Z,22.2
2016-03-04T03:24:10.117Z,22.2
2016-03-04T03:25:11.245Z,22.2
2016-03-04T03:26:10.029Z,22.2
2016-03-04T03:27:08.672Z,22.2
2016-03-04T03:28:07.457Z,22.2
2016-03-04T03:29:06.381Z,22.2
2016-03-04T03:30:05.025Z,22.3
2016-03-04T03:31:03.918Z,22.2
2016-03-04T03:32:02.577Z,22.2
2016-03-04T03:33:01.391Z,22.2
2016-03-04T03:33:59.957Z,22.3
2016-03-04T03:35:01.100Z,22.2
2016-03-04T03:35:59.478Z,22.2
2016-03-04T03:36:58.277Z,22.2
2016-03-04T03:37:56.796Z,22.2
2016-03-04T03:38:55.329Z,22.2
2016-03-04T03:39:53.973Z,22.3
2016-03-04T03:40:52.508Z,22.2
2016-03-04T03:41:51.057Z,22.3
2016-03-04T03:43:48.015Z,22.2
2016-03-04T03:44:49.143Z,22.2
2016-03-04T03:45:47.551Z,22.2
2016-03-04T03:46:46.211Z,22.2
2016-03-04T03:47:44.729Z,22.2
2016-03-04T03:49:41.688Z,22.2
2016-03-04T03:51:38.739Z,22.3
2016-03-04T03:52:37.367Z,22.2
2016-03-04T03:53:35.949Z,22.2
2016-03-04T03:54:36.841Z,22.3
2016-03-04T03:55:35.360Z,22.3
2016-03-04T03:56:33.894Z,22.3
2016-03-04T03:57:32.397Z,22.2
2016-03-04T03:58:31.196Z,22.2
2016-03-04T03:59:30.089Z,22.2
2016-03-04T04:00:28.874Z,22.2
2016-03-04T04:01:27.530Z,22.2
2016-03-04T04:03:25.269Z,22.2
2016-03-04T04:04:26.147Z,22.2
2016-03-04T04:05:25.040Z,22.2
2016-03-04T04:06:23.699Z,22.3
2016-03-04T04:07:22.624Z,22.2
2016-03-04T04:08:21.268Z,22.2
2016-03-04T04:09:20.177Z,22.2
2016-03-04T04:10:18.835Z,22.2
2016-03-04T04:11:17.729Z,22.3
2016-03-04T04:12:16.512Z,22.2
2016-03-04T04:13:15.359Z,22.3
2016-03-04T04:14:16.361Z,22.2
2016-03-04T04:15:15.037Z,22.2
2016-03-04T04:16:13.821Z,22.3
2016-03-04T04:17:12.463Z,22.3
2016-03-04T04:18:11.123Z,22.2
2016-03-04T04:19:09.906Z,22.2
2016-03-04T04:20:08.440Z,22.2
2016-03-04T04:21:06.958Z,22.2
2016-03-04T04:22:05.477Z,22.2
2016-03-04T04:23:04.339Z,22.3
2016-03-04T04:24:05.342Z,22.3
2016-03-04T04:25:03.859Z,22.2
2016-03-04T04:26:02.519Z,22.2
2016-03-04T04:27:01.036Z,22.3
2016-03-04T04:27:59.447Z,22.3
2016-03-04T04:28:58.106Z,22.3
2016-03-04T04:29:56.623Z,22.2
2016-03-04T04:30:55.032Z,22.3
2016-03-04T04:31:53.550Z,22.3
2016-03-04T04:32:52.272Z,22.3
2016-03-04T04:33:53.149Z,22.3
2016-03-04T04:34:51.793Z,22.3
2016-03-04T04:35:50.202Z,22.2
2016-03-04T04:36:48.877Z,22.2
2016-03-04T04:37:47.379Z,22.2
2016-03-04T04:38:45.788Z,22.2
2016-03-04T04:39:44.431Z,22.2
2016-03-04T04:40:42.981Z,22.2
2016-03-04T04:41:41.374Z,22.2
2016-03-04T04:42:40.095Z,22.2
2016-03-04T04:43:40.958Z,22.2
2016-03-04T04:44:39.476Z,22.2
2016-03-04T04:46:36.559Z,22.2
2016-03-04T04:47:35.094Z,22.3
2016-03-04T04:49:32.256Z,22.2
2016-03-04T04:50:30.648Z,22.2
2016-03-04T04:51:29.304Z,22.2
2016-03-04T04:52:27.875Z,22.2
2016-03-04T04:53:28.795Z,22.2
2016-03-04T04:54:27.307Z,22.2
2016-03-04T04:55:25.814Z,22.2
2016-03-04T04:56:26.630Z,22.2
2016-03-04T04:57:22.867Z,22.2
2016-03-04T04:58:21.401Z,22.2
2016-03-04T04:59:20.060Z,22.2
2016-03-04T05:00:18.453Z,22.2
2016-03-04T05:01:17.112Z,22.2
2016-03-04T05:02:15.567Z,22.2
2016-03-04T05:03:16.586Z,22.2
2016-03-04T05:04:15.215Z,22.2
2016-03-04T05:05:13.732Z,22.3
2016-03-04T05:06:12.141Z,22.3
2016-03-04T05:07:10.831Z,22.3
2016-03-04T05:08:09.318Z,22.2
2016-03-04T05:09:07.728Z,22.2
2016-03-04T05:10:06.246Z,22.2
2016-03-04T05:11:04.779Z,22.3
2016-03-04T05:12:03.361Z,22.3
2016-03-04T05:13:04.488Z,22.2
2016-03-04T05:14:03.037Z,22.2
2016-03-04T05:15:01.571Z,22.2
2016-03-04T05:16:00.075Z,22.2
2016-03-04T05:16:58.593Z,22.2
2016-03-04T05:17:57.002Z,22.2
2016-03-04T05:18:55.676Z,22.3
2016-03-04T05:19:54.053Z,22.3
2016-03-04T05:20:52.588Z,22.3
2016-03-04T05:21:51.294Z,22.2
2016-03-04T05:22:52.172Z,22.3
2016-03-04T05:23:50.705Z,22.3
2016-03-04T05:24:49.364Z,22.2
2016-03-04T05:25:47.882Z,22.2
2016-03-04T05:26:46.401Z,22.2
2016-03-04T05:27:44.840Z,22.2
2016-03-04T05:28:43.344Z,22.2
2016-03-04T05:29:41.863Z,22.2
2016-03-04T05:30:40.396Z,22.3
2016-03-04T05:31:39.102Z,22.2
2016-03-04T05:32:40.104Z,22.3
2016-03-04T05:33:38.545Z,22.3
2016-03-04T05:34:37.048Z,22.3
2016-03-04T05:35:35.565Z,22.2
2016-03-04T05:36:34.224Z,22.3
2016-03-04T05:37:32.631Z,22.3
2016-03-04T05:38:31.274Z,22.2
2016-03-04T05:39:29.683Z,22.2
2016-03-04T05:40:28.201Z,22.2
2016-03-04T05:41:26.906Z,22.2
2016-03-04T05:42:27.801Z,22.3
2016-03-04T05:43:26.320Z,22.2
2016-03-04T05:44:24.978Z,22.3
2016-03-04T05:45:23.387Z,22.3
2016-03-04T05:46:22.030Z,22.2
2016-03-04T05:47:20.548Z,22.3
2016-03-04T05:48:19.082Z,22.3
2016-03-04T05:49:17.616Z,22.3
2016-03-04T05:50:16.166Z,22.3
2016-03-04T05:51:14.606Z,22.3
2016-03-04T05:52:15.608Z,22.3
2016-03-04T05:53:14.127Z,22.3
2016-03-04T05:54:12.785Z,22.3
2016-03-04T05:55:11.195Z,22.3
2016-03-04T05:56:09.838Z,22.3
2016-03-04T05:57:08.247Z,22.3
2016-03-04T05:58:06.766Z,22.3
2016-03-04T05:59:05.440Z,22.3
2016-03-04T06:00:03.943Z,22.2
2016-03-04T06:01:02.523Z,22.2
2016-03-04T06:02:03.541Z,22.3
2016-03-04T06:03:01.935Z,22.3
2016-03-04T06:04:00.594Z,22.3
2016-03-04T06:04:58.988Z,22.3
2016-03-04T06:05:57.521Z,22.3
2016-03-04T06:06:56.180Z,22.3
2016-03-04T06:07:54.586Z,22.3
2016-03-04T06:08:53.217Z,22.3
2016-03-04T06:09:51.614Z,22.3
2016-03-04T06:10:50.291Z,22.3
2016-03-04T06:11:51.281Z,22.3
2016-03-04T06:12:49.678Z,22.3
2016-03-04T06:13:48.208Z,22.3
2016-03-04T06:14:46.721Z,22.3
2016-03-04T06:15:45.251Z,22.3
2016-03-04T06:16:43.765Z,22.3
2016-03-04T06:17:42.436Z,22.3
2016-03-04T06:18:40.937Z,22.3
2016-03-04T06:19:39.469Z,22.3
2016-03-04T06:20:37.923Z,22.3
2016-03-04T06:21:38.924Z,22.3
2016-03-04T06:22:37.457Z,22.3
2016-03-04T06:23:36.099Z,22.3
2016-03-04T06:24:34.646Z,22.3
2016-03-04T06:25:33.164Z,22.3
2016-03-04T06:26:31.697Z,22.3
2016-03-04T06:27:30.230Z,22.3
2016-03-04T06:28:28.732Z,22.3
2016-03-04T06:29:27.141Z,22.3
2016-03-04T06:30:25.863Z,22.3
2016-03-04T06:31:26.741Z,22.3
2016-03-04T06:32:25.384Z,22.3
2016-03-04T06:33:23.902Z,22.3
2016-03-04T06:34:22.342Z,22.3
2016-03-04T06:35:20.970Z,22.3
2016-03-04T06:36:19.489Z,22.3
2016-03-04T06:37:17.898Z,22.3
2016-03-04T06:38:16.540Z,22.3
2016-03-04T06:39:15.075Z,22.3
2016-03-04T06:40:13.656Z,22.3
2016-03-04T06:41:14.673Z,22.3
2016-03-04T06:42:13.067Z,22.3
2016-03-04T06:43:11.601Z,22.3
2016-03-04T06:44:10.120Z,22.3
2016-03-04T06:45:08.669Z,22.4
2016-03-04T06:46:07.297Z,22.3
2016-03-04T06:47:05.830Z,22.3
2016-03-04T06:48:04.239Z,22.3
2016-03-04T06:49:02.913Z,22.4
2016-03-04T06:50:01.480Z,22.4
2016-03-04T06:51:02.483Z,22.3
2016-03-04T06:52:00.891Z,22.3
2016-03-04T06:52:59.410Z,22.3
2016-03-04T06:53:58.068Z,22.4
2016-03-04T06:54:56.586Z,22.4
2016-03-04T06:55:55.105Z,22.3
2016-03-04T06:56:53.513Z,22.4
2016-03-04T06:57:52.048Z,22.4
2016-03-04T06:58:50.566Z,22.4
2016-03-04T06:59:49.303Z,22.4
2016-03-04T07:00:50.290Z,22.5
2016-03-04T07:01:48.808Z,22.4
2016-03-04T07:02:47.343Z,22.4
2016-03-04T07:03:45.860Z,22.4
2016-03-04T07:04:44.270Z,22.4
2016-03-04T07:05:42.913Z,22.4
2016-03-04T07:06:41.323Z,22.4
2016-03-04T07:07:39.840Z,22.5
2016-03-04T07:08:38.498Z,22.4
2016-03-04T07:09:36.983Z,22.4
2016-03-04T07:10:38.083Z,22.4
2016-03-04T07:11:36.614Z,22.4
2016-03-04T07:12:35.148Z,22.5
2016-03-04T07:13:33.542Z,22.5
2016-03-04T07:14:32.185Z,22.5
2016-03-04T07:15:30.609Z,22.4
2016-03-04T07:16:29.252Z,22.5
2016-03-04T07:17:27.661Z,22.5
2016-03-04T07:18:26.289Z,22.5
2016-03-04T07:19:24.885Z,22.5
2016-03-04T07:20:25.763Z,22.5
2016-03-04T07:21:24.313Z,22.5
2016-03-04T07:22:22.816Z,22.5
2016-03-04T07:23:21.474Z,22.5
2016-03-04T07:24:19.868Z,22.5
2016-03-04T07:25:18.542Z,22.5
2016-03-04T07:26:16.919Z,22.5
2016-03-04T07:27:15.579Z,22.5
2016-03-04T07:28:13.987Z,22.5
2016-03-04T07:29:12.677Z,22.5
2016-03-04T07:30:13.571Z,22.5
2016-03-04T07:31:12.214Z,22.5
2016-03-04T07:32:10.624Z,22.6
2016-03-04T07:33:09.267Z,22.6
2016-03-04T07:34:07.691Z,22.5
2016-03-04T07:35:06.210Z,22.5
2016-03-04T07:36:04.853Z,22.6
2016-03-04T07:37:03.153Z,22.6
2016-03-04T07:38:01.655Z,22.6
2016-03-04T07:39:00.002Z,22.6
2016-03-04T07:40:00.864Z,22.7
2016-03-04T07:40:59.132Z,22.6
2016-03-04T07:41:57.416Z,22.7
2016-03-04T07:42:55.684Z,22.7
2016-03-04T07:43:53.953Z,22.7
2016-03-04T07:44:52.345Z,22.7
2016-03-04T07:45:50.506Z,22.7
2016-03-04T07:46:48.773Z,22.7
2016-03-04T07:47:47.041Z,22.7
2016-03-04T07:48:45.497Z,22.7
2016-03-04T07:49:46.375Z,22.7
2016-03-04T07:50:44.643Z,22.7
2016-03-04T07:51:43.036Z,22.8
2016-03-04T07:52:41.226Z,22.8
2016-03-04T07:53:39.464Z,22.8
2016-03-04T07:54:37.872Z,22.8
2016-03-04T07:55:36.013Z,22.8
2016-03-04T07:56:34.422Z,22.8
2016-03-04T07:57:32.707Z,22.9
2016-03-04T07:58:30.927Z,22.9
2016-03-04T07:59:32.008Z,22.9
2016-03-04T08:00:29.918Z,22.9
2016-03-04T08:01:27.936Z,22.9
2016-03-04T08:02:25.938Z,23
2016-03-04T08:03:23.972Z,22.9
2016-03-04T08:04:21.976Z,23
2016-03-04T08:05:19.993Z,23
2016-03-04T08:06:18.012Z,23
2016-03-04T08:07:16.046Z,23.1
2016-03-04T08:08:14.236Z,23.1
2016-03-04T08:09:15.129Z,23.1
2016-03-04T08:10:13.256Z,23.1
2016-03-04T08:11:11.166Z,23.1
2016-03-04T08:12:08.918Z,23.1
2016-03-04T08:13:07.061Z,23.1
2016-03-04T08:14:04.814Z,23.1
2016-03-04T08:15:02.598Z,23.1
2016-03-04T08:16:00.258Z,23.1
2016-03-04T08:16:58.011Z,23.2
2016-03-04T08:17:55.842Z,23.2
2016-03-04T08:18:56.844Z,23.2
2016-03-04T08:19:54.611Z,23.2
2016-03-04T08:20:52.489Z,23.2
2016-03-04T08:21:50.133Z,23.2
2016-03-04T08:22:47.902Z,23.2
2016-03-04T08:23:49.482Z,23.3
2016-03-04T08:24:51.032Z,23.3
2016-03-04T08:25:52.596Z,23.3
2016-03-04T08:26:54.162Z,23.4
2016-03-04T08:27:55.836Z,23.4
2016-03-04T08:28:56.808Z,23.5
2016-03-04T08:29:58.357Z,23.5
2016-03-04T08:30:59.907Z,23.6
2016-03-04T08:32:01.597Z,23.6
2016-03-04T08:33:03.068Z,23.6
2016-03-04T08:34:04.618Z,23.8
2016-03-04T08:36:06.982Z,23.9
2016-03-04T08:37:08.173Z,24
2016-03-04T08:38:09.176Z,24
2016-03-04T08:39:10.163Z,24.1
2016-03-04T08:40:10.837Z,24.1
2016-03-04T08:41:11.387Z,24.1
2016-03-04T08:42:11.812Z,24.1
2016-03-04T08:43:12.126Z,24.1
2016-03-04T08:44:12.567Z,24.2
2016-03-04T08:45:12.601Z,24.2
2016-03-04T08:46:12.259Z,24.2
2016-03-04T08:47:11.919Z,24.2
2016-03-04T08:48:11.390Z,24.1
2016-03-04T08:49:12.503Z,24.1
2016-03-04T08:50:11.427Z,24
2016-03-04T08:51:10.445Z,23.9
2016-03-04T08:52:09.230Z,23.8
2016-03-04T08:53:08.013Z,23.7
2016-03-04T08:54:06.655Z,23.4
2016-03-04T08:55:05.050Z,23.3
2016-03-04T08:56:03.708Z,23.1
2016-03-04T08:57:02.227Z,23
2016-03-04T08:58:00.699Z,22.8
2016-03-04T08:59:01.716Z,22.7
2016-03-04T09:00:00.219Z,22.5
2016-03-04T09:00:58.738Z,22.3
2016-03-04T09:01:57.521Z,22.2
2016-03-04T09:02:56.680Z,22
2016-03-04T09:03:55.714Z,21.9
2016-03-04T09:04:54.733Z,21.9
2016-03-04T09:05:54.033Z,21.7
2016-03-04T09:06:53.458Z,21.7
2016-03-04T09:07:53.055Z,21.7
2016-03-04T09:08:54.057Z,21.7
2016-03-04T09:09:53.982Z,21.7
2016-03-04T09:10:53.766Z,21.7
2016-03-04T09:11:53.690Z,21.8
2016-03-04T09:12:53.741Z,21.8
2016-03-04T09:13:53.914Z,21.8
2016-03-04T09:14:53.964Z,21.9
2016-03-04T09:15:53.888Z,21.9
2016-03-04T09:16:54.172Z,21.9
2016-03-04T09:17:54.659Z,22
2016-03-04T09:18:55.537Z,22
2016-03-04T09:19:55.836Z,22.1
2016-03-04T09:20:56.137Z,22.1
2016-03-04T09:21:56.435Z,22.1
2016-03-04T09:22:56.735Z,22.2
2016-03-04T09:23:57.395Z,22.2
2016-03-04T09:24:57.975Z,22.3
2016-03-04T09:25:58.384Z,22.3
2016-03-04T09:26:58.699Z,22.3
2016-03-04T09:27:59.061Z,22.3
2016-03-04T09:29:00.173Z,22.4
2016-03-04T09:30:00.614Z,22.4
2016-03-04T09:31:01.288Z,22.5
2016-03-04T09:32:01.713Z,22.4
2016-03-04T09:33:02.387Z,22.4
2016-03-04T09:34:02.936Z,22.5
2016-03-04T09:35:03.486Z,22.4
2016-03-04T09:36:03.927Z,22.5
2016-03-04T09:37:04.601Z,22.5
2016-03-04T09:38:05.088Z,22.5
2016-03-04T09:39:06.091Z,22.5
2016-03-04T09:40:06.672Z,22.5
2016-03-04T09:41:07.566Z,22.5
2016-03-04T09:42:08.271Z,22.5
2016-03-04T09:43:09.086Z,22.5
2016-03-04T09:44:09.869Z,22.5
2016-03-04T09:45:10.794Z,22.5
2016-03-04T09:46:11.860Z,22.5
2016-03-04T09:47:12.924Z,22.5
2016-03-04T09:48:14.052Z,22.6
2016-03-04T09:49:15.040Z,22.6
2016-03-04T09:50:15.980Z,22.5
2016-03-04T09:51:17.171Z,22.5
2016-03-04T09:53:19.159Z,22.6
2016-03-04T09:55:21.337Z,22.6
2016-03-04T09:57:23.546Z,22.6
2016-03-04T09:58:24.642Z,22.6
2016-03-04T09:59:25.520Z,22.6
2016-03-04T10:00:26.601Z,22.6
2016-03-04T10:01:27.759Z,22.6
2016-03-04T10:02:28.809Z,22.6
2016-03-04T10:03:29.765Z,22.6
2016-03-04T10:04:31.189Z,22.6
2016-03-04T10:05:32.379Z,22.6
2016-03-04T10:06:33.820Z,22.6
2016-03-04T10:09:37.500Z,22.6
2016-03-04T10:10:38.705Z,22.6
2016-03-04T10:11:40.258Z,22.7
2016-03-04T10:13:42.997Z,22.7
2016-03-04T10:14:44.203Z,22.7
2016-03-04T10:15:45.518Z,22.7
2016-03-04T10:16:47.209Z,22.7
2016-03-04T10:17:48.758Z,22.7
2016-03-04T10:18:50.276Z,22.7
2016-03-04T10:19:51.280Z,22.7
2016-03-04T10:20:52.844Z,22.6
2016-03-04T10:21:54.409Z,22.6
2016-03-04T10:22:55.975Z,22.6
2016-03-04T10:23:57.649Z,22.7
2016-03-04T10:24:59.230Z,22.7
2016-03-04T10:26:00.795Z,22.7
2016-03-04T10:27:02.345Z,22.7
2016-03-04T10:28:03.942Z,22.7
2016-03-04T10:29:05.428Z,22.7
2016-03-04T10:30:06.431Z,22.7
2016-03-04T10:31:08.136Z,22.7
2016-03-04T10:32:09.562Z,22.7
2016-03-04T10:33:11.251Z,22.7
2016-03-04T10:34:12.817Z,22.7
2016-03-04T10:35:14.257Z,22.7
2016-03-04T10:36:15.947Z,22.8
2016-03-04T10:37:17.403Z,22.8
2016-03-04T10:38:18.969Z,22.7
2016-03-04T10:39:20.705Z,22.8
2016-03-04T10:40:21.708Z,22.8
2016-03-04T10:41:23.180Z,22.8
2016-03-04T10:42:24.838Z,22.8
2016-03-04T10:43:26.403Z,22.7
2016-03-04T10:44:27.968Z,22.8
2016-03-04T10:45:29.534Z,22.7
2016-03-04T10:46:30.990Z,22.7
2016-03-04T10:47:32.554Z,22.8
2016-03-04T10:48:34.246Z,22.8
2016-03-04T10:49:35.748Z,22.8
2016-03-04T10:50:36.860Z,22.8
2016-03-04T10:51:34.629Z,22.8
2016-03-04T10:52:32.272Z,22.8
2016-03-04T10:53:30.165Z,22.8
2016-03-04T10:54:27.808Z,22.7
2016-03-04T10:55:25.576Z,22.8
2016-03-04T10:56:23.485Z,22.8
2016-03-04T10:57:21.223Z,22.8
2016-03-04T10:58:18.991Z,22.8
2016-03-04T10:59:16.696Z,22.8
2016-03-04T11:00:17.714Z,22.8
2016-03-04T11:01:15.718Z,22.9
2016-03-04T11:02:13.908Z,22.9
2016-03-04T11:03:11.769Z,23
2016-03-04T11:04:09.773Z,23
2016-03-04T11:05:07.792Z,23.1
2016-03-04T11:06:05.809Z,23.1
2016-03-04T11:07:03.967Z,23.2
2016-03-04T11:08:01.862Z,23.2
2016-03-04T11:09:00.052Z,23.3
2016-03-04T11:10:00.929Z,23.3
2016-03-04T11:10:58.964Z,23.3
2016-03-04T11:11:56.981Z,23.4
2016-03-04T11:12:55.000Z,23.4
2016-03-04T11:13:53.128Z,23.4
2016-03-04T11:14:51.052Z,23.4
2016-03-04T11:15:49.430Z,23.5
2016-03-04T11:16:47.588Z,23.5
2016-03-04T11:17:45.857Z,23.5
2016-03-04T11:18:44.297Z,23.5
2016-03-04T11:19:45.299Z,23.6
2016-03-04T11:20:43.710Z,23.6
2016-03-04T11:21:42.243Z,23.6
2016-03-04T11:22:40.758Z,23.6
2016-03-04T11:23:39.276Z,23.6
2016-03-04T11:24:37.811Z,23.6
2016-03-04T11:25:36.454Z,23.6
2016-03-04T11:26:34.988Z,23.7
2016-03-04T11:27:33.381Z,23.7
2016-03-04T11:28:31.963Z,23.6
2016-03-04T11:29:32.965Z,23.6
2016-03-04T11:30:31.514Z,23.7
2016-03-04T11:31:30.142Z,23.7
2016-03-04T11:32:28.535Z,23.7
2016-03-04T11:33:27.303Z,23.7
2016-03-04T11:34:26.103Z,23.7
2016-03-04T11:35:24.872Z,23.7
2016-03-04T11:36:23.640Z,23.7
2016-03-04T11:37:22.548Z,23.7
2016-03-04T11:38:21.489Z,23.6
2016-03-04T11:39:22.258Z,23.6
2016-03-04T11:40:21.041Z,23.7
2016-03-04T11:41:19.825Z,23.6
2016-03-04T11:42:18.859Z,23.6
2016-03-04T11:43:17.894Z,23.7
2016-03-04T11:44:16.911Z,23.7
2016-03-04T11:45:15.944Z,23.7
2016-03-04T11:46:14.995Z,23.7
2016-03-04T11:47:14.029Z,23.7
2016-03-04T11:48:13.110Z,23.7
2016-03-04T11:49:14.113Z,23.7
2016-03-04T11:50:13.147Z,23.7
2016-03-04T11:51:12.165Z,23.7
2016-03-04T11:52:11.198Z,23.7
2016-03-04T11:53:10.249Z,23.7
2016-03-04T11:54:09.266Z,23.7
2016-03-04T11:55:08.300Z,23.6
2016-03-04T11:56:07.334Z,23.6
2016-03-04T11:57:06.368Z,23.7
2016-03-04T11:58:05.574Z,23.7
2016-03-04T11:59:06.451Z,23.6
2016-03-04T12:00:05.485Z,23.6
2016-03-04T12:01:04.520Z,23.7
2016-03-04T12:02:03.553Z,23.7
2016-03-04T12:03:02.587Z,23.7
2016-03-04T12:04:01.621Z,23.7
2016-03-04T12:05:00.640Z,23.7
2016-03-04T12:05:59.798Z,23.7
2016-03-04T12:06:58.958Z,23.7
2016-03-04T12:07:58.053Z,23.7
2016-03-04T12:08:59.056Z,23.7
2016-03-04T12:09:58.341Z,23.7
2016-03-04T12:10:57.625Z,23.7
2016-03-04T12:11:57.033Z,23.6
2016-03-04T12:12:56.192Z,23.7
2016-03-04T12:13:55.477Z,23.7
2016-03-04T12:14:54.885Z,23.7
2016-03-04T12:15:54.169Z,23.7
2016-03-04T12:16:53.344Z,23.7
2016-03-04T12:17:52.675Z,23.7
2016-03-04T12:18:53.802Z,23.7
2016-03-04T12:19:52.961Z,23.7
2016-03-04T12:20:52.246Z,23.7
2016-03-04T12:21:51.529Z,23.7
2016-03-04T12:22:50.829Z,23.7
2016-03-04T12:23:50.362Z,23.7
2016-03-04T12:24:49.897Z,23.7
2016-03-04T12:25:49.446Z,23.7
2016-03-04T12:26:49.104Z,23.7
2016-03-04T12:27:48.577Z,23.7
2016-03-04T12:28:49.720Z,23.7
2016-03-04T12:29:49.113Z,23.7
2016-03-04T12:30:48.647Z,23.7
2016-03-04T12:31:48.197Z,23.7
2016-03-04T12:32:47.731Z,23.7
2016-03-04T12:33:47.264Z,23.7
2016-03-04T12:34:46.815Z,23.7
2016-03-04T12:35:46.347Z,23.7
2016-03-04T12:36:46.007Z,23.7
2016-03-04T12:37:45.603Z,23.7
2016-03-04T12:38:46.481Z,23.7
2016-03-04T12:39:46.031Z,23.7
2016-03-04T12:40:45.564Z,23.7
2016-03-04T12:41:45.098Z,23.7
2016-03-04T12:42:44.632Z,23.7
2016-03-04T12:43:44.308Z,23.7
2016-03-04T12:44:43.841Z,23.7
2016-03-04T12:45:43.266Z,23.7
2016-03-04T12:46:42.797Z,23.7
2016-03-04T12:47:42.393Z,23.7
2016-03-04T12:48:43.399Z,23.7
2016-03-04T12:49:42.930Z,23.7
2016-03-04T12:50:42.463Z,23.7
2016-03-04T12:51:42.138Z,23.7
2016-03-04T12:52:41.547Z,23.7
2016-03-04T12:53:41.097Z,23.7
2016-03-04T12:54:40.630Z,23.7
2016-03-04T12:55:40.165Z,23.7
2016-03-04T12:56:39.824Z,23.7
2016-03-04T12:57:39.420Z,23.7
2016-03-04T12:58:40.313Z,23.7
2016-03-04T12:59:39.848Z,23.7
2016-03-04T13:00:39.507Z,23.7
2016-03-04T13:01:38.931Z,23.7
2016-03-04T13:02:38.465Z,23.7
2016-03-04T13:03:37.998Z,23.7
2016-03-04T13:04:37.548Z,23.7
2016-03-04T13:05:37.082Z,23.7
2016-03-04T13:06:36.617Z,23.7
2016-03-04T13:07:36.212Z,23.7
2016-03-04T13:08:37.340Z,23.7
2016-03-04T13:09:36.750Z,23.6
2016-03-04T13:10:36.408Z,23.7
2016-03-04T13:11:35.833Z,23.7
2016-03-04T13:12:35.367Z,23.7
2016-03-04T13:13:34.901Z,23.7
2016-03-04T13:14:34.450Z,23.6
2016-03-04T13:15:34.108Z,23.7
2016-03-04T13:16:33.518Z,23.7
2016-03-04T13:17:33.239Z,23.7
2016-03-04T13:18:34.117Z,23.6
2016-03-04T13:19:33.651Z,23.7
2016-03-04T13:20:33.311Z,23.7
2016-03-04T13:21:32.735Z,23.7
2016-03-04T13:22:32.394Z,23.7
2016-03-04T13:23:32.068Z,23.7
2016-03-04T13:24:31.602Z,23.7
2016-03-04T13:25:31.402Z,23.7
2016-03-04T13:26:31.061Z,23.7
2016-03-04T13:27:30.907Z,23.7
2016-03-04T13:28:31.784Z,23.7
2016-03-04T13:29:31.335Z,23.7
2016-03-04T13:30:31.118Z,23.7
2016-03-04T13:31:30.917Z,23.7
2016-03-04T13:32:30.701Z,23.7
2016-03-04T13:33:30.502Z,23.7
2016-03-04T13:34:30.301Z,23.7
2016-03-04T13:35:30.084Z,23.7
2016-03-04T13:36:29.901Z,23.7
2016-03-04T13:37:29.840Z,23.7
2016-03-04T13:38:30.718Z,23.7
2016-03-04T13:39:30.517Z,23.7
2016-03-04T13:40:30.426Z,23.7
2016-03-04T13:41:30.101Z,23.7
2016-03-04T13:42:29.900Z,23.7
2016-03-04T13:43:29.794Z,23.7
2016-03-04T13:44:29.593Z,23.7
2016-03-04T13:45:29.378Z,23.7
2016-03-04T13:46:29.052Z,23.7
2016-03-04T13:47:28.898Z,23.7
2016-03-04T13:48:29.900Z,23.7
2016-03-04T13:49:29.951Z,23.7
2016-03-04T13:50:30.125Z,23.7
2016-03-04T13:51:30.049Z,23.7
2016-03-04T13:52:30.099Z,23.7